sensor_id;sensor_type;location;lat;lon;timestamp;P1;durP1;ratioP1;P2;durP2;ratioP2
13469;SDS011;6807;48.682;9.032;2023-08-12T00:02:24;12.52;;;9.60;;
13469;SDS011;6807;48.682;9.032;2023-08-12T00:04:53;14.10;;;8.82;;
13469;SDS011;6807;48.682;9.032;2023-08-12T00:07:19;12.77;;;8.75;;
13469;SDS011;6807;48.682;9.032;2023-08-12T00:09:46;11.85;;;7.90;;
13469;SDS011;6807;48.682;9.032;2023-08-12T00:12:14;9.73;;;7.95;;
13469;SDS011;6807;48.682;9.032;2023-08-12T00:14:41;10.40;;;7.97;;
13469;SDS011;6807;48.682;9.032;2023-08-12T00:17:08;8.18;;;6.80;;
13469;SDS011;6807;48.682;9.032;2023-08-12T00:19:35;8.93;;;6.55;;
13469;SDS011;6807;48.682;9.032;2023-08-12T00:22:04;9.13;;;6.63;;
13469;SDS011;6807;48.682;9.032;2023-08-12T00:24:30;9.13;;;7.50;;
13469;SDS011;6807;48.682;9.032;2023-08-12T00:26:57;9.80;;;6.38;;
13469;SDS011;6807;48.682;9.032;2023-08-12T00:29:25;10.30;;;6.35;;
13469;SDS011;6807;48.682;9.032;2023-08-12T00:31:52;7.97;;;6.07;;
13469;SDS011;6807;48.682;9.032;2023-08-12T00:34:19;7.88;;;6.18;;
13469;SDS011;6807;48.682;9.032;2023-08-12T00:36:46;9.00;;;5.97;;
13469;SDS011;6807;48.682;9.032;2023-08-12T00:39:14;7.28;;;6.50;;
13469;SDS011;6807;48.682;9.032;2023-08-12T00:41:41;10.68;;;6.38;;
13469;SDS011;6807;48.682;9.032;2023-08-12T00:44:08;10.32;;;6.30;;
13469;SDS011;6807;48.682;9.032;2023-08-12T00:46:35;9.45;;;6.43;;
13469;SDS011;6807;48.682;9.032;2023-08-12T00:49:04;12.13;;;6.32;;
13469;SDS011;6807;48.682;9.032;2023-08-12T00:51:31;8.48;;;5.97;;
13469;SDS011;6807;48.682;9.032;2023-08-12T00:53:58;9.65;;;6.63;;
13469;SDS011;6807;48.682;9.032;2023-08-12T00:56:26;9.88;;;6.97;;
13469;SDS011;6807;48.682;9.032;2023-08-12T00:58:53;7.57;;;6.72;;
13469;SDS011;6807;48.682;9.032;2023-08-12T01:01:20;7.45;;;6.75;;
13469;SDS011;6807;48.682;9.032;2023-08-12T01:03:47;8.05;;;6.43;;
13469;SDS011;6807;48.682;9.032;2023-08-12T01:06:14;8.80;;;6.43;;
13469;SDS011;6807;48.682;9.032;2023-08-12T01:08:41;7.65;;;6.70;;
13469;SDS011;6807;48.682;9.032;2023-08-12T01:11:10;8.02;;;5.80;;
13469;SDS011;6807;48.682;9.032;2023-08-12T01:13:44;11.13;;;7.00;;
13469;SDS011;6807;48.682;9.032;2023-08-12T01:16:15;9.63;;;6.28;;
13469;SDS011;6807;48.682;9.032;2023-08-12T01:18:44;7.85;;;5.75;;
13469;SDS011;6807;48.682;9.032;2023-08-12T01:21:14;7.18;;;5.80;;
13469;SDS011;6807;48.682;9.032;2023-08-12T01:23:44;7.32;;;5.93;;
13469;SDS011;6807;48.682;9.032;2023-08-12T01:26:11;6.75;;;6.00;;
13469;SDS011;6807;48.682;9.032;2023-08-12T01:28:37;7.63;;;6.30;;
13469;SDS011;6807;48.682;9.032;2023-08-12T01:31:06;6.18;;;5.53;;
13469;SDS011;6807;48.682;9.032;2023-08-12T01:33:39;6.90;;;5.60;;
13469;SDS011;6807;48.682;9.032;2023-08-12T01:36:13;7.05;;;6.35;;
13469;SDS011;6807;48.682;9.032;2023-08-12T01:38:43;6.93;;;6.13;;
13469;SDS011;6807;48.682;9.032;2023-08-12T01:41:12;7.97;;;5.95;;
13469;SDS011;6807;48.682;9.032;2023-08-12T01:43:40;7.57;;;5.70;;
13469;SDS011;6807;48.682;9.032;2023-08-12T01:46:08;8.15;;;6.13;;
13469;SDS011;6807;48.682;9.032;2023-08-12T01:48:35;7.40;;;5.88;;
13469;SDS011;6807;48.682;9.032;2023-08-12T01:51:02;9.40;;;5.95;;
13469;SDS011;6807;48.682;9.032;2023-08-12T01:53:29;6.55;;;5.90;;
13469;SDS011;6807;48.682;9.032;2023-08-12T01:55:57;8.73;;;6.35;;
13469;SDS011;6807;48.682;9.032;2023-08-12T01:58:24;8.38;;;6.03;;
13469;SDS011;6807;48.682;9.032;2023-08-12T02:00:51;6.20;;;5.60;;
13469;SDS011;6807;48.682;9.032;2023-08-12T02:03:18;7.80;;;5.97;;
13469;SDS011;6807;48.682;9.032;2023-08-12T02:05:45;6.68;;;5.90;;
13469;SDS011;6807;48.682;9.032;2023-08-12T02:08:12;6.10;;;5.50;;
13469;SDS011;6807;48.682;9.032;2023-08-12T02:10:39;6.68;;;5.50;;
13469;SDS011;6807;48.682;9.032;2023-08-12T02:13:07;7.13;;;6.13;;
13469;SDS011;6807;48.682;9.032;2023-08-12T02:15:34;6.07;;;5.47;;
13469;SDS011;6807;48.682;9.032;2023-08-12T02:18:01;9.30;;;5.78;;
13469;SDS011;6807;48.682;9.032;2023-08-12T02:20:28;5.80;;;4.95;;
13469;SDS011;6807;48.682;9.032;2023-08-12T02:22:55;8.82;;;5.35;;
13469;SDS011;6807;48.682;9.032;2023-08-12T02:25:22;9.32;;;5.65;;
13469;SDS011;6807;48.682;9.032;2023-08-12T02:27:49;7.40;;;5.03;;
13469;SDS011;6807;48.682;9.032;2023-08-12T02:30:17;9.38;;;5.25;;
13469;SDS011;6807;48.682;9.032;2023-08-12T02:32:44;7.43;;;5.57;;
13469;SDS011;6807;48.682;9.032;2023-08-12T02:35:11;5.95;;;5.13;;
13469;SDS011;6807;48.682;9.032;2023-08-12T02:37:38;5.30;;;4.80;;
13469;SDS011;6807;48.682;9.032;2023-08-12T02:40:05;6.10;;;5.30;;
13469;SDS011;6807;48.682;9.032;2023-08-12T02:42:33;5.95;;;5.07;;
13469;SDS011;6807;48.682;9.032;2023-08-12T02:44:59;8.68;;;5.32;;
13469;SDS011;6807;48.682;9.032;2023-08-12T02:47:28;8.63;;;5.50;;
13469;SDS011;6807;48.682;9.032;2023-08-12T02:49:54;5.68;;;4.70;;
13469;SDS011;6807;48.682;9.032;2023-08-12T02:52:21;6.05;;;5.45;;
13469;SDS011;6807;48.682;9.032;2023-08-12T02:54:48;5.93;;;5.32;;
13469;SDS011;6807;48.682;9.032;2023-08-12T02:57:15;5.80;;;4.97;;
13469;SDS011;6807;48.682;9.032;2023-08-12T02:59:42;7.40;;;5.53;;
13469;SDS011;6807;48.682;9.032;2023-08-12T03:02:08;6.10;;;5.50;;
13469;SDS011;6807;48.682;9.032;2023-08-12T03:04:37;6.68;;;5.18;;
13469;SDS011;6807;48.682;9.032;2023-08-12T03:07:03;5.40;;;4.90;;
13469;SDS011;6807;48.682;9.032;2023-08-12T03:09:30;7.60;;;4.95;;
13469;SDS011;6807;48.682;9.032;2023-08-12T03:11:57;5.60;;;5.00;;
13469;SDS011;6807;48.682;9.032;2023-08-12T03:14:26;7.32;;;4.85;;
13469;SDS011;6807;48.682;9.032;2023-08-12T03:16:54;6.93;;;5.35;;
13469;SDS011;6807;48.682;9.032;2023-08-12T03:19:21;6.25;;;4.63;;
13469;SDS011;6807;48.682;9.032;2023-08-12T03:21:49;7.38;;;5.25;;
13469;SDS011;6807;48.682;9.032;2023-08-12T03:24:16;6.80;;;4.93;;
13469;SDS011;6807;48.682;9.032;2023-08-12T03:26:43;5.85;;;4.78;;
13469;SDS011;6807;48.682;9.032;2023-08-12T03:29:09;5.88;;;5.13;;
13469;SDS011;6807;48.682;9.032;2023-08-12T03:31:36;6.60;;;5.30;;
13469;SDS011;6807;48.682;9.032;2023-08-12T03:34:03;6.07;;;5.32;;
13469;SDS011;6807;48.682;9.032;2023-08-12T03:36:30;6.90;;;5.38;;
13469;SDS011;6807;48.682;9.032;2023-08-12T03:38:58;7.60;;;5.18;;
13469;SDS011;6807;48.682;9.032;2023-08-12T03:41:25;6.45;;;5.50;;
13469;SDS011;6807;48.682;9.032;2023-08-12T03:43:51;6.18;;;4.95;;
13469;SDS011;6807;48.682;9.032;2023-08-12T03:46:18;5.38;;;4.85;;
13469;SDS011;6807;48.682;9.032;2023-08-12T03:48:45;4.50;;;4.10;;
13469;SDS011;6807;48.682;9.032;2023-08-12T03:51:12;7.20;;;5.10;;
13469;SDS011;6807;48.682;9.032;2023-08-12T03:53:39;6.60;;;4.40;;
13469;SDS011;6807;48.682;9.032;2023-08-12T03:56:07;8.52;;;5.07;;
13469;SDS011;6807;48.682;9.032;2023-08-12T03:58:34;5.47;;;4.97;;
13469;SDS011;6807;48.682;9.032;2023-08-12T04:01:01;5.07;;;4.57;;
13469;SDS011;6807;48.682;9.032;2023-08-12T04:03:27;5.15;;;4.63;;
13469;SDS011;6807;48.682;9.032;2023-08-12T04:05:54;4.88;;;4.47;;
13469;SDS011;6807;48.682;9.032;2023-08-12T04:08:22;8.40;;;5.05;;
13469;SDS011;6807;48.682;9.032;2023-08-12T04:10:49;6.82;;;4.65;;
13469;SDS011;6807;48.682;9.032;2023-08-12T04:13:18;5.90;;;5.30;;
13469;SDS011;6807;48.682;9.032;2023-08-12T04:15:48;5.18;;;4.25;;
13469;SDS011;6807;48.682;9.032;2023-08-12T04:18:16;6.90;;;4.80;;
13469;SDS011;6807;48.682;9.032;2023-08-12T04:20:44;5.53;;;4.55;;
13469;SDS011;6807;48.682;9.032;2023-08-12T04:23:11;6.25;;;4.60;;
13469;SDS011;6807;48.682;9.032;2023-08-12T04:25:38;4.63;;;4.22;;
13469;SDS011;6807;48.682;9.032;2023-08-12T04:28:05;4.85;;;4.35;;
13469;SDS011;6807;48.682;9.032;2023-08-12T04:30:33;5.03;;;4.50;;
13469;SDS011;6807;48.682;9.032;2023-08-12T04:33:00;5.30;;;4.50;;
13469;SDS011;6807;48.682;9.032;2023-08-12T04:35:27;6.07;;;4.70;;
13469;SDS011;6807;48.682;9.032;2023-08-12T04:37:53;6.63;;;5.03;;
13469;SDS011;6807;48.682;9.032;2023-08-12T04:40:20;5.50;;;4.75;;
13469;SDS011;6807;48.682;9.032;2023-08-12T04:42:47;5.68;;;4.55;;
13469;SDS011;6807;48.682;9.032;2023-08-12T04:45:14;5.15;;;4.65;;
13469;SDS011;6807;48.682;9.032;2023-08-12T04:47:42;5.40;;;4.90;;
13469;SDS011;6807;48.682;9.032;2023-08-12T04:50:09;5.28;;;4.80;;
13469;SDS011;6807;48.682;9.032;2023-08-12T04:52:36;5.18;;;4.53;;
13469;SDS011;6807;48.682;9.032;2023-08-12T04:55:03;9.13;;;5.00;;
13469;SDS011;6807;48.682;9.032;2023-08-12T04:57:30;5.47;;;4.93;;
13469;SDS011;6807;48.682;9.032;2023-08-12T04:59:57;5.80;;;4.80;;
13469;SDS011;6807;48.682;9.032;2023-08-12T05:02:24;5.13;;;4.63;;
13469;SDS011;6807;48.682;9.032;2023-08-12T05:04:52;6.18;;;5.30;;
13469;SDS011;6807;48.682;9.032;2023-08-12T05:07:19;6.28;;;5.25;;
13469;SDS011;6807;48.682;9.032;2023-08-12T05:09:46;5.72;;;5.18;;
13469;SDS011;6807;48.682;9.032;2023-08-12T05:12:12;8.10;;;5.55;;
13469;SDS011;6807;48.682;9.032;2023-08-12T05:14:39;7.03;;;5.30;;
13469;SDS011;6807;48.682;9.032;2023-08-12T05:17:06;6.60;;;5.38;;
13469;SDS011;6807;48.682;9.032;2023-08-12T05:19:33;7.47;;;5.97;;
13469;SDS011;6807;48.682;9.032;2023-08-12T05:22:01;9.07;;;5.97;;
13469;SDS011;6807;48.682;9.032;2023-08-12T05:24:28;6.18;;;5.57;;
13469;SDS011;6807;48.682;9.032;2023-08-12T05:26:55;6.10;;;5.50;;
13469;SDS011;6807;48.682;9.032;2023-08-12T05:29:22;5.95;;;5.35;;
13469;SDS011;6807;48.682;9.032;2023-08-12T05:31:48;6.53;;;5.93;;
13469;SDS011;6807;48.682;9.032;2023-08-12T05:34:16;6.53;;;5.75;;
13469;SDS011;6807;48.682;9.032;2023-08-12T05:36:42;6.38;;;5.47;;
13469;SDS011;6807;48.682;9.032;2023-08-12T05:39:11;6.13;;;5.53;;
13469;SDS011;6807;48.682;9.032;2023-08-12T05:41:38;6.40;;;5.78;;
13469;SDS011;6807;48.682;9.032;2023-08-12T05:44:05;7.20;;;5.50;;
13469;SDS011;6807;48.682;9.032;2023-08-12T05:46:32;8.13;;;5.57;;
13469;SDS011;6807;48.682;9.032;2023-08-12T05:48:59;8.30;;;5.40;;
13469;SDS011;6807;48.682;9.032;2023-08-12T05:51:25;6.25;;;5.65;;
13469;SDS011;6807;48.682;9.032;2023-08-12T05:53:52;7.70;;;5.65;;
13469;SDS011;6807;48.682;9.032;2023-08-12T05:56:20;5.82;;;5.22;;
13469;SDS011;6807;48.682;9.032;2023-08-12T05:58:47;7.22;;;5.85;;
13469;SDS011;6807;48.682;9.032;2023-08-12T06:01:14;7.07;;;5.05;;
13469;SDS011;6807;48.682;9.032;2023-08-12T06:03:41;6.28;;;5.00;;
13469;SDS011;6807;48.682;9.032;2023-08-12T06:06:08;6.45;;;5.47;;
13469;SDS011;6807;48.682;9.032;2023-08-12T06:08:35;5.90;;;5.32;;
13469;SDS011;6807;48.682;9.032;2023-08-12T06:11:02;5.80;;;5.30;;
13469;SDS011;6807;48.682;9.032;2023-08-12T06:13:30;5.38;;;4.80;;
13469;SDS011;6807;48.682;9.032;2023-08-12T06:15:57;5.85;;;5.25;;
13469;SDS011;6807;48.682;9.032;2023-08-12T06:18:24;5.20;;;4.70;;
13469;SDS011;6807;48.682;9.032;2023-08-12T06:20:51;7.03;;;5.15;;
13469;SDS011;6807;48.682;9.032;2023-08-12T06:23:18;5.07;;;4.57;;
13469;SDS011;6807;48.682;9.032;2023-08-12T06:25:45;5.55;;;5.00;;
13469;SDS011;6807;48.682;9.032;2023-08-12T06:28:11;20.65;;;5.22;;
13469;SDS011;6807;48.682;9.032;2023-08-12T06:30:40;6.05;;;4.95;;
13469;SDS011;6807;48.682;9.032;2023-08-12T06:33:10;5.72;;;4.72;;
13469;SDS011;6807;48.682;9.032;2023-08-12T06:35:37;6.47;;;4.88;;
13469;SDS011;6807;48.682;9.032;2023-08-12T06:38:04;5.55;;;4.07;;
13469;SDS011;6807;48.682;9.032;2023-08-12T06:40:31;5.88;;;4.10;;
13469;SDS011;6807;48.682;9.032;2023-08-12T06:42:58;4.45;;;3.97;;
13469;SDS011;6807;48.682;9.032;2023-08-12T06:45:25;4.78;;;4.03;;
13469;SDS011;6807;48.682;9.032;2023-08-12T06:47:54;4.53;;;4.03;;
13469;SDS011;6807;48.682;9.032;2023-08-12T06:50:20;5.43;;;4.30;;
13469;SDS011;6807;48.682;9.032;2023-08-12T06:52:47;5.63;;;4.15;;
13469;SDS011;6807;48.682;9.032;2023-08-12T06:55:14;4.28;;;3.88;;
13469;SDS011;6807;48.682;9.032;2023-08-12T06:57:41;4.70;;;4.20;;
13469;SDS011;6807;48.682;9.032;2023-08-12T07:00:08;4.72;;;3.83;;
13469;SDS011;6807;48.682;9.032;2023-08-12T07:02:35;4.18;;;3.60;;
13469;SDS011;6807;48.682;9.032;2023-08-12T07:05:04;4.60;;;3.80;;
13469;SDS011;6807;48.682;9.032;2023-08-12T07:07:31;7.70;;;4.00;;
13469;SDS011;6807;48.682;9.032;2023-08-12T07:09:58;4.55;;;3.72;;
13469;SDS011;6807;48.682;9.032;2023-08-12T07:12:25;5.18;;;3.47;;
13469;SDS011;6807;48.682;9.032;2023-08-12T07:14:53;4.97;;;3.60;;
13469;SDS011;6807;48.682;9.032;2023-08-12T07:17:21;6.22;;;3.65;;
13469;SDS011;6807;48.682;9.032;2023-08-12T07:19:49;6.32;;;3.72;;
13469;SDS011;6807;48.682;9.032;2023-08-12T07:22:18;4.05;;;3.35;;
13469;SDS011;6807;48.682;9.032;2023-08-12T07:24:45;6.75;;;3.65;;
13469;SDS011;6807;48.682;9.032;2023-08-12T07:27:12;4.07;;;3.67;;
13469;SDS011;6807;48.682;9.032;2023-08-12T07:29:40;4.35;;;3.95;;
13469;SDS011;6807;48.682;9.032;2023-08-12T07:32:09;3.70;;;3.40;;
13469;SDS011;6807;48.682;9.032;2023-08-12T07:34:37;4.95;;;3.35;;
13469;SDS011;6807;48.682;9.032;2023-08-12T07:37:04;4.15;;;3.17;;
13469;SDS011;6807;48.682;9.032;2023-08-12T07:39:32;3.47;;;3.15;;
13469;SDS011;6807;48.682;9.032;2023-08-12T07:42:14;3.65;;;3.05;;
13469;SDS011;6807;48.682;9.032;2023-08-12T07:44:43;4.57;;;3.30;;
13469;SDS011;6807;48.682;9.032;2023-08-12T07:47:11;4.80;;;3.38;;
13469;SDS011;6807;48.682;9.032;2023-08-12T07:49:40;3.60;;;3.25;;
13469;SDS011;6807;48.682;9.032;2023-08-12T07:52:07;3.50;;;3.20;;
13469;SDS011;6807;48.682;9.032;2023-08-12T07:54:35;3.30;;;2.95;;
13469;SDS011;6807;48.682;9.032;2023-08-12T07:57:02;6.20;;;3.60;;
13469;SDS011;6807;48.682;9.032;2023-08-12T07:59:29;3.40;;;3.10;;
13469;SDS011;6807;48.682;9.032;2023-08-12T08:01:57;3.45;;;3.15;;
13469;SDS011;6807;48.682;9.032;2023-08-12T08:04:24;3.45;;;3.10;;
13469;SDS011;6807;48.682;9.032;2023-08-12T08:06:51;3.22;;;2.92;;
13469;SDS011;6807;48.682;9.032;2023-08-12T08:09:17;6.85;;;3.55;;
13469;SDS011;6807;48.682;9.032;2023-08-12T08:11:46;4.13;;;3.05;;
13469;SDS011;6807;48.682;9.032;2023-08-12T08:14:12;7.05;;;2.95;;
13469;SDS011;6807;48.682;9.032;2023-08-12T08:16:40;3.22;;;2.92;;
13469;SDS011;6807;48.682;9.032;2023-08-12T08:19:07;3.47;;;3.17;;
13469;SDS011;6807;48.682;9.032;2023-08-12T08:21:34;3.28;;;2.97;;
13469;SDS011;6807;48.682;9.032;2023-08-12T08:24:01;4.70;;;2.78;;
13469;SDS011;6807;48.682;9.032;2023-08-12T08:26:28;3.38;;;2.90;;
13469;SDS011;6807;48.682;9.032;2023-08-12T08:28:57;3.35;;;2.75;;
13469;SDS011;6807;48.682;9.032;2023-08-12T08:31:23;3.97;;;3.10;;
13469;SDS011;6807;48.682;9.032;2023-08-12T08:33:50;3.25;;;2.95;;
13469;SDS011;6807;48.682;9.032;2023-08-12T08:36:17;3.90;;;2.95;;
13469;SDS011;6807;48.682;9.032;2023-08-12T08:38:44;3.15;;;2.80;;
13469;SDS011;6807;48.682;9.032;2023-08-12T08:41:11;5.50;;;3.25;;
13469;SDS011;6807;48.682;9.032;2023-08-12T08:43:39;3.72;;;2.90;;
13469;SDS011;6807;48.682;9.032;2023-08-12T08:46:10;3.47;;;3.10;;
13469;SDS011;6807;48.682;9.032;2023-08-12T08:48:40;3.60;;;2.70;;
13469;SDS011;6807;48.682;9.032;2023-08-12T08:51:07;3.08;;;2.47;;
13469;SDS011;6807;48.682;9.032;2023-08-12T08:53:35;3.22;;;2.75;;
13469;SDS011;6807;48.682;9.032;2023-08-12T08:56:04;4.10;;;2.80;;
13469;SDS011;6807;48.682;9.032;2023-08-12T08:58:32;4.93;;;2.67;;
13469;SDS011;6807;48.682;9.032;2023-08-12T09:00:59;2.67;;;2.47;;
13469;SDS011;6807;48.682;9.032;2023-08-12T09:03:29;4.13;;;2.60;;
13469;SDS011;6807;48.682;9.032;2023-08-12T09:05:56;2.72;;;2.53;;
13469;SDS011;6807;48.682;9.032;2023-08-12T09:08:24;2.50;;;2.30;;
13469;SDS011;6807;48.682;9.032;2023-08-12T09:10:52;4.40;;;2.70;;
13469;SDS011;6807;48.682;9.032;2023-08-12T09:13:21;2.67;;;2.42;;
13469;SDS011;6807;48.682;9.032;2023-08-12T09:15:48;4.10;;;3.10;;
13469;SDS011;6807;48.682;9.032;2023-08-12T09:18:15;3.05;;;2.53;;
13469;SDS011;6807;48.682;9.032;2023-08-12T09:20:44;4.30;;;2.50;;
13469;SDS011;6807;48.682;9.032;2023-08-12T09:23:11;3.15;;;2.60;;
13469;SDS011;6807;48.682;9.032;2023-08-12T09:25:41;2.60;;;2.40;;
13469;SDS011;6807;48.682;9.032;2023-08-12T09:28:09;3.53;;;2.90;;
13469;SDS011;6807;48.682;9.032;2023-08-12T09:30:37;5.03;;;2.80;;
13469;SDS011;6807;48.682;9.032;2023-08-12T09:33:05;3.25;;;2.95;;
13469;SDS011;6807;48.682;9.032;2023-08-12T09:35:33;3.05;;;2.75;;
13469;SDS011;6807;48.682;9.032;2023-08-12T09:38:03;3.45;;;2.40;;
13469;SDS011;6807;48.682;9.032;2023-08-12T09:40:31;4.28;;;2.90;;
13469;SDS011;6807;48.682;9.032;2023-08-12T09:42:58;3.88;;;2.88;;
13469;SDS011;6807;48.682;9.032;2023-08-12T09:45:25;5.97;;;3.00;;
13469;SDS011;6807;48.682;9.032;2023-08-12T09:47:52;4.95;;;2.78;;
13469;SDS011;6807;48.682;9.032;2023-08-12T09:50:21;3.72;;;2.85;;
13469;SDS011;6807;48.682;9.032;2023-08-12T09:52:48;3.63;;;3.00;;
13469;SDS011;6807;48.682;9.032;2023-08-12T09:55:17;3.85;;;3.10;;
13469;SDS011;6807;48.682;9.032;2023-08-12T09:57:47;3.25;;;2.90;;
13469;SDS011;6807;48.682;9.032;2023-08-12T10:00:22;4.35;;;3.08;;
13469;SDS011;6807;48.682;9.032;2023-08-12T10:02:51;5.07;;;3.10;;
13469;SDS011;6807;48.682;9.032;2023-08-12T10:05:21;3.55;;;3.25;;
13469;SDS011;6807;48.682;9.032;2023-08-12T10:07:51;5.00;;;3.38;;
13469;SDS011;6807;48.682;9.032;2023-08-12T10:10:20;6.43;;;3.33;;
13469;SDS011;6807;48.682;9.032;2023-08-12T10:12:48;3.88;;;3.00;;
13469;SDS011;6807;48.682;9.032;2023-08-12T10:15:15;3.20;;;2.90;;
13469;SDS011;6807;48.682;9.032;2023-08-12T10:17:43;5.90;;;3.50;;
13469;SDS011;6807;48.682;9.032;2023-08-12T10:20:12;3.97;;;3.20;;
13469;SDS011;6807;48.682;9.032;2023-08-12T10:22:40;6.25;;;3.20;;
13469;SDS011;6807;48.682;9.032;2023-08-12T10:25:10;3.85;;;3.10;;
13469;SDS011;6807;48.682;9.032;2023-08-12T10:27:42;3.13;;;2.67;;
13469;SDS011;6807;48.682;9.032;2023-08-12T10:30:09;3.35;;;3.05;;
13469;SDS011;6807;48.682;9.032;2023-08-12T10:32:37;4.43;;;3.17;;
13469;SDS011;6807;48.682;9.032;2023-08-12T10:35:05;3.20;;;2.90;;
13469;SDS011;6807;48.682;9.032;2023-08-12T10:37:33;2.60;;;2.40;;
13469;SDS011;6807;48.682;9.032;2023-08-12T10:40:02;5.20;;;3.15;;
13469;SDS011;6807;48.682;9.032;2023-08-12T10:42:43;4.25;;;2.70;;
13469;SDS011;6807;48.682;9.032;2023-08-12T10:45:20;4.80;;;3.10;;
13469;SDS011;6807;48.682;9.032;2023-08-12T10:47:51;4.07;;;2.80;;
13469;SDS011;6807;48.682;9.032;2023-08-12T10:50:43;3.47;;;2.95;;
13469;SDS011;6807;48.682;9.032;2023-08-12T10:53:22;4.93;;;3.00;;
13469;SDS011;6807;48.682;9.032;2023-08-12T10:55:54;2.90;;;2.60;;
13469;SDS011;6807;48.682;9.032;2023-08-12T10:58:33;5.45;;;2.80;;
13469;SDS011;6807;48.682;9.032;2023-08-12T11:01:00;5.35;;;2.80;;
13469;SDS011;6807;48.682;9.032;2023-08-12T11:03:41;3.30;;;2.90;;
13469;SDS011;6807;48.682;9.032;2023-08-12T11:06:09;4.28;;;3.30;;
13469;SDS011;6807;48.682;9.032;2023-08-12T11:08:36;3.30;;;3.00;;
13469;SDS011;6807;48.682;9.032;2023-08-12T11:11:04;2.97;;;2.67;;
13469;SDS011;6807;48.682;9.032;2023-08-12T11:13:49;3.03;;;2.72;;
13469;SDS011;6807;48.682;9.032;2023-08-12T11:16:20;5.30;;;3.17;;
13469;SDS011;6807;48.682;9.032;2023-08-12T11:18:58;3.47;;;2.75;;
13469;SDS011;6807;48.682;9.032;2023-08-12T11:21:25;4.20;;;2.83;;
13469;SDS011;6807;48.682;9.032;2023-08-12T11:23:53;2.90;;;2.70;;
13469;SDS011;6807;48.682;9.032;2023-08-12T11:26:21;3.45;;;3.15;;
13469;SDS011;6807;48.682;9.032;2023-08-12T11:28:51;4.43;;;2.97;;
13469;SDS011;6807;48.682;9.032;2023-08-12T11:31:19;3.55;;;2.75;;
13469;SDS011;6807;48.682;9.032;2023-08-12T11:33:48;5.72;;;2.70;;
13469;SDS011;6807;48.682;9.032;2023-08-12T11:36:15;4.28;;;2.80;;
13469;SDS011;6807;48.682;9.032;2023-08-12T11:38:43;5.80;;;2.80;;
13469;SDS011;6807;48.682;9.032;2023-08-12T11:41:10;4.10;;;2.83;;
13469;SDS011;6807;48.682;9.032;2023-08-12T11:43:37;2.70;;;2.50;;
13469;SDS011;6807;48.682;9.032;2023-08-12T11:48:43;3.45;;;2.67;;
13469;SDS011;6807;48.682;9.032;2023-08-12T11:51:09;5.45;;;2.90;;
13469;SDS011;6807;48.682;9.032;2023-08-12T11:53:36;3.97;;;2.95;;
13469;SDS011;6807;48.682;9.032;2023-08-12T11:56:03;6.53;;;2.78;;
13469;SDS011;6807;48.682;9.032;2023-08-12T12:09:33;3.67;;;2.97;;
13469;SDS011;6807;48.682;9.032;2023-08-12T12:12:00;5.38;;;3.00;;
13469;SDS011;6807;48.682;9.032;2023-08-12T12:14:28;4.65;;;3.35;;
13469;SDS011;6807;48.682;9.032;2023-08-12T12:16:55;4.10;;;3.05;;
13469;SDS011;6807;48.682;9.032;2023-08-12T12:19:22;5.35;;;2.80;;
13469;SDS011;6807;48.682;9.032;2023-08-12T12:21:51;4.95;;;3.15;;
13469;SDS011;6807;48.682;9.032;2023-08-12T12:24:19;7.35;;;2.95;;
13469;SDS011;6807;48.682;9.032;2023-08-12T12:26:49;6.07;;;3.28;;
13469;SDS011;6807;48.682;9.032;2023-08-12T12:29:16;7.68;;;3.83;;
13469;SDS011;6807;48.682;9.032;2023-08-12T12:31:43;5.75;;;3.00;;
13469;SDS011;6807;48.682;9.032;2023-08-12T12:34:10;4.22;;;2.80;;
13469;SDS011;6807;48.682;9.032;2023-08-12T12:36:39;4.82;;;3.00;;
13469;SDS011;6807;48.682;9.032;2023-08-12T12:39:06;4.10;;;2.90;;
13469;SDS011;6807;48.682;9.032;2023-08-12T12:41:33;5.15;;;3.20;;
13469;SDS011;6807;48.682;9.032;2023-08-12T12:44:02;4.88;;;2.90;;
13469;SDS011;6807;48.682;9.032;2023-08-12T12:46:31;6.25;;;3.45;;
13469;SDS011;6807;48.682;9.032;2023-08-12T12:48:58;6.45;;;3.65;;
13469;SDS011;6807;48.682;9.032;2023-08-12T12:51:25;5.80;;;3.35;;
13469;SDS011;6807;48.682;9.032;2023-08-12T12:53:54;10.23;;;3.80;;
13469;SDS011;6807;48.682;9.032;2023-08-12T12:56:22;4.35;;;3.88;;
13469;SDS011;6807;48.682;9.032;2023-08-12T12:58:50;3.97;;;3.13;;
13469;SDS011;6807;48.682;9.032;2023-08-12T13:01:18;6.93;;;3.67;;
13469;SDS011;6807;48.682;9.032;2023-08-12T13:03:45;3.97;;;3.05;;
13469;SDS011;6807;48.682;9.032;2023-08-12T13:06:12;5.93;;;3.83;;
13469;SDS011;6807;48.682;9.032;2023-08-12T13:08:39;4.75;;;3.30;;
13469;SDS011;6807;48.682;9.032;2023-08-12T13:11:06;4.90;;;3.30;;
13469;SDS011;6807;48.682;9.032;2023-08-12T13:13:33;5.25;;;3.80;;
13469;SDS011;6807;48.682;9.032;2023-08-12T13:16:00;5.15;;;3.30;;
13469;SDS011;6807;48.682;9.032;2023-08-12T13:18:29;9.50;;;3.63;;
13469;SDS011;6807;48.682;9.032;2023-08-12T13:20:56;5.80;;;3.90;;
13469;SDS011;6807;48.682;9.032;2023-08-12T13:23:23;4.72;;;3.90;;
13469;SDS011;6807;48.682;9.032;2023-08-12T13:25:50;6.45;;;3.58;;
13469;SDS011;6807;48.682;9.032;2023-08-12T13:28:17;5.07;;;3.60;;
13469;SDS011;6807;48.682;9.032;2023-08-12T13:30:44;7.15;;;3.47;;
13469;SDS011;6807;48.682;9.032;2023-08-12T13:33:11;8.00;;;3.92;;
13469;SDS011;6807;48.682;9.032;2023-08-12T13:35:39;8.65;;;3.42;;
13469;SDS011;6807;48.682;9.032;2023-08-12T13:38:06;4.22;;;3.33;;
13469;SDS011;6807;48.682;9.032;2023-08-12T13:40:33;5.40;;;3.33;;
13469;SDS011;6807;48.682;9.032;2023-08-12T13:43:00;4.93;;;2.60;;
13469;SDS011;6807;48.682;9.032;2023-08-12T13:45:27;3.55;;;2.70;;
13469;SDS011;6807;48.682;9.032;2023-08-12T13:47:54;3.30;;;2.58;;
13469;SDS011;6807;48.682;9.032;2023-08-12T13:50:22;4.47;;;2.80;;
13469;SDS011;6807;48.682;9.032;2023-08-12T13:52:50;2.88;;;2.22;;
13469;SDS011;6807;48.682;9.032;2023-08-12T13:55:17;4.47;;;2.75;;
13469;SDS011;6807;48.682;9.032;2023-08-12T13:57:44;3.13;;;2.45;;
13469;SDS011;6807;48.682;9.032;2023-08-12T14:00:11;2.95;;;2.30;;
13469;SDS011;6807;48.682;9.032;2023-08-12T14:02:39;4.13;;;2.30;;
13469;SDS011;6807;48.682;9.032;2023-08-12T14:05:06;3.63;;;2.13;;
13469;SDS011;6807;48.682;9.032;2023-08-12T14:07:35;3.55;;;2.30;;
13469;SDS011;6807;48.682;9.032;2023-08-12T14:10:03;3.70;;;2.30;;
13469;SDS011;6807;48.682;9.032;2023-08-12T14:12:31;2.28;;;2.08;;
13469;SDS011;6807;48.682;9.032;2023-08-12T14:14:58;2.88;;;2.38;;
13469;SDS011;6807;48.682;9.032;2023-08-12T14:17:25;2.67;;;2.35;;
13469;SDS011;6807;48.682;9.032;2023-08-12T14:19:52;3.00;;;2.33;;
13469;SDS011;6807;48.682;9.032;2023-08-12T14:22:19;2.92;;;2.42;;
13469;SDS011;6807;48.682;9.032;2023-08-12T14:24:46;2.60;;;2.13;;
13469;SDS011;6807;48.682;9.032;2023-08-12T14:27:15;2.95;;;2.17;;
13469;SDS011;6807;48.682;9.032;2023-08-12T14:29:43;2.70;;;2.25;;
13469;SDS011;6807;48.682;9.032;2023-08-12T14:32:10;3.55;;;2.10;;
13469;SDS011;6807;48.682;9.032;2023-08-12T14:34:37;2.92;;;2.15;;
13469;SDS011;6807;48.682;9.032;2023-08-12T14:37:04;2.15;;;1.95;;
13469;SDS011;6807;48.682;9.032;2023-08-12T14:39:32;2.50;;;2.15;;
13469;SDS011;6807;48.682;9.032;2023-08-12T14:41:59;4.30;;;2.22;;
13469;SDS011;6807;48.682;9.032;2023-08-12T14:44:30;3.20;;;2.50;;
13469;SDS011;6807;48.682;9.032;2023-08-12T14:46:57;2.78;;;2.05;;
13469;SDS011;6807;48.682;9.032;2023-08-12T14:49:24;2.65;;;2.13;;
13469;SDS011;6807;48.682;9.032;2023-08-12T14:51:51;2.63;;;2.30;;
13469;SDS011;6807;48.682;9.032;2023-08-12T14:54:18;2.20;;;2.00;;
13469;SDS011;6807;48.682;9.032;2023-08-12T14:56:45;2.60;;;2.40;;
13469;SDS011;6807;48.682;9.032;2023-08-12T14:59:12;2.80;;;2.15;;
13469;SDS011;6807;48.682;9.032;2023-08-12T15:01:40;2.47;;;2.00;;
13469;SDS011;6807;48.682;9.032;2023-08-12T15:04:07;2.45;;;2.10;;
13469;SDS011;6807;48.682;9.032;2023-08-12T15:06:34;2.55;;;1.95;;
13469;SDS011;6807;48.682;9.032;2023-08-12T15:09:01;2.28;;;1.90;;
13469;SDS011;6807;48.682;9.032;2023-08-12T15:11:28;3.05;;;1.90;;
13469;SDS011;6807;48.682;9.032;2023-08-12T15:13:54;3.95;;;1.98;;
13469;SDS011;6807;48.682;9.032;2023-08-12T15:16:21;2.22;;;1.98;;
13469;SDS011;6807;48.682;9.032;2023-08-12T15:18:50;2.78;;;1.90;;